Hessville, New York
Current Conditions -  °F | °C
As of 9:55 AM on Thursday 23 Oct 2014 (Local Time) from KNY0 Reporting Station
Overcast Overcast  
Wind Chill: 45°   Ceiling: 200
Heat Index: 45°   Visibility: 4mi
Dew Point: 44°   Wind: 3mph
Humidity: 97%   Direction: 270°W
Pressure: 29.88"   Gusts: NA
Location:  42.9271°N, 74.711°W
Report Text: KNY0 231355Z AUTO 27003KT 4SM BKN002 BKN011 OVC020 07/07 A2988 RMK AO2 P0004 T00700066
Loading
Personal Weather Stations






























Interactive Weather Map
Tropical Storm Tracking
New forecast layout! Learn more

10-Day Weather Forecast

Advertisements
Track Severe Weather on mobile